VTK601 URMM-HEGN
Flight info
| Callsign | VTK601 |
|---|---|
| Flight time | 3h 24m |
| Altitude | 38000 |
| Route | ABELA5M ABELA B967 ERSAR G487 PROZR/K0859F370 N166 TUDEK/N0465F370 UR114 NIVAX DCT TBN/N0465F380 UW706 SIV UT54 HALIL/N0459F390 UW77 AYT UM855 TOMBI M855 RASDA A16 CVO L315 SOKOT SOKOT1A |
| Aircraft | B38M/M-SDE1FGHILORVWXY/HB1 |
Departure
| Time | 2026-05-06 12:22 |
|---|---|
| Airport | Mineralnye Vody Airport (URMM) |
Arrival
| Time | 2026-05-06 15:46 |
|---|---|
| Airport | Hurghada International Airport (HEGN) |
| Time | Latitude | Longitude | Altitude | Speed | Heading |
|---|---|---|---|---|---|
| 2026-05-06 12:18 | 44.21758 | 43.09369 | 1053 ft | 0 kts | 212° |
| 2026-05-06 12:19 | 44.21756 | 43.09367 | 1053 ft | 2 kts | 212° |
| 2026-05-06 12:19 | 44.21720 | 43.09342 | 1053 ft | 10 kts | 197° |
| 2026-05-06 12:19 | 44.21642 | 43.09411 | 1053 ft | 19 kts | 122° |
| 2026-05-06 12:19 | 44.21561 | 43.09595 | 1053 ft | 24 kts | 122° |
| 2026-05-06 12:20 | 44.21521 | 43.09818 | 1053 ft | 25 kts | 80° |
| 2026-05-06 12:20 | 44.21561 | 43.10057 | 1053 ft | 26 kts | 76° |
| 2026-05-06 12:20 | 44.21650 | 43.10262 | 1053 ft | 22 kts | 35° |
| 2026-05-06 12:20 | 44.21756 | 43.10313 | 1054 ft | 15 kts | 330° |
| 2026-05-06 12:21 | 44.21817 | 43.10199 | 1055 ft | 17 kts | 303° |
| 2026-05-06 12:21 | 44.21998 | 43.09802 | 1059 ft | 83 kts | 302° |
| 2026-05-06 12:21 | 44.22422 | 43.08866 | 1055 ft | 143 kts | 302° |
| 2026-05-06 12:21 | 44.23023 | 43.07539 | 1209 ft | 176 kts | 303° |
| 2026-05-06 12:22 | 44.23706 | 43.06036 | 1864 ft | 186 kts | 302° |
| 2026-05-06 12:22 | 44.24385 | 43.04550 | 2894 ft | 181 kts | 304° |
| 2026-05-06 12:22 | 44.25109 | 43.02972 | 3417 ft | 205 kts | 303° |
| 2026-05-06 12:22 | 44.25920 | 43.01188 | 3923 ft | 228 kts | 303° |
| 2026-05-06 12:23 | 44.26802 | 42.99239 | 4544 ft | 247 kts | 303° |
| 2026-05-06 12:23 | 44.27747 | 42.97152 | 5316 ft | 256 kts | 303° |
| 2026-05-06 12:23 | 44.28698 | 42.95044 | 6254 ft | 260 kts | 303° |
| 2026-05-06 12:23 | 44.29671 | 42.92886 | 7134 ft | 261 kts | 304° |
| 2026-05-06 12:24 | 44.30637 | 42.90735 | 8057 ft | 264 kts | 303° |
| 2026-05-06 12:24 | 44.31613 | 42.88531 | 8877 ft | 270 kts | 300° |
| 2026-05-06 12:24 | 44.32114 | 42.85962 | 9569 ft | 282 kts | 271° |
| 2026-05-06 12:24 | 44.31685 | 42.83290 | 10344 ft | 290 kts | 245° |
| 2026-05-06 12:25 | 44.30518 | 42.80891 | 10754 ft | 309 kts | 234° |
| 2026-05-06 12:25 | 44.29174 | 42.78437 | 11082 ft | 329 kts | 234° |
| 2026-05-06 12:25 | 44.27749 | 42.75812 | 11358 ft | 349 kts | 235° |
| 2026-05-06 12:25 | 44.26247 | 42.73052 | 11746 ft | 364 kts | 234° |
| 2026-05-06 12:26 | 44.24736 | 42.70279 | 12589 ft | 363 kts | 234° |
| 2026-05-06 12:26 | 44.23195 | 42.67455 | 13280 ft | 369 kts | 234° |
| 2026-05-06 12:26 | 44.21626 | 42.64576 | 13864 ft | 376 kts | 234° |
| 2026-05-06 12:26 | 44.20090 | 42.61624 | 14097 ft | 377 kts | 243° |
| 2026-05-06 12:27 | 44.19229 | 42.58234 | 14848 ft | 372 kts | 261° |
| 2026-05-06 12:27 | 44.18905 | 42.54626 | 15402 ft | 378 kts | 265° |
| 2026-05-06 12:27 | 44.18636 | 42.50971 | 16040 ft | 382 kts | 265° |
| 2026-05-06 12:27 | 44.18382 | 42.47266 | 16699 ft | 384 kts | 265° |
| 2026-05-06 12:28 | 44.18138 | 42.43541 | 17346 ft | 388 kts | 266° |
| 2026-05-06 12:28 | 44.17899 | 42.39784 | 17972 ft | 391 kts | 265° |
| 2026-05-06 12:28 | 44.17660 | 42.35980 | 18501 ft | 397 kts | 265° |
| 2026-05-06 12:28 | 44.17418 | 42.32129 | 18998 ft | 402 kts | 265° |
| 2026-05-06 12:29 | 44.17173 | 42.28234 | 19516 ft | 405 kts | 265° |
| 2026-05-06 12:29 | 44.16924 | 42.24316 | 20036 ft | 408 kts | 265° |
| 2026-05-06 12:29 | 44.16671 | 42.20359 | 20549 ft | 411 kts | 265° |
| 2026-05-06 12:29 | 44.16416 | 42.16374 | 21018 ft | 416 kts | 265° |
| 2026-05-06 12:30 | 44.16156 | 42.12346 | 21526 ft | 419 kts | 265° |
| 2026-05-06 12:30 | 44.15893 | 42.08289 | 22007 ft | 422 kts | 265° |
| 2026-05-06 12:30 | 44.15626 | 42.04196 | 22475 ft | 426 kts | 265° |
| 2026-05-06 12:30 | 44.15355 | 42.00066 | 22980 ft | 430 kts | 265° |
| 2026-05-06 12:31 | 44.15085 | 41.95966 | 23444 ft | 433 kts | 265° |
| 2026-05-06 12:31 | 44.14807 | 41.91774 | 23847 ft | 436 kts | 264° |
| 2026-05-06 12:31 | 44.14525 | 41.87556 | 24236 ft | 439 kts | 264° |
| 2026-05-06 12:31 | 44.14241 | 41.83306 | 24630 ft | 442 kts | 264° |
| 2026-05-06 12:32 | 44.13953 | 41.79033 | 25040 ft | 444 kts | 264° |
| 2026-05-06 12:32 | 44.13662 | 41.74748 | 25439 ft | 447 kts | 264° |
| 2026-05-06 12:32 | 44.13367 | 41.70423 | 25755 ft | 450 kts | 264° |
| 2026-05-06 12:32 | 44.13069 | 41.66064 | 26122 ft | 453 kts | 264° |
| 2026-05-06 12:33 | 44.12767 | 41.61688 | 26544 ft | 455 kts | 264° |
| 2026-05-06 12:33 | 44.12463 | 41.57296 | 26945 ft | 458 kts | 264° |
| 2026-05-06 12:33 | 44.12156 | 41.52875 | 27278 ft | 461 kts | 264° |
| 2026-05-06 12:33 | 44.11716 | 41.48454 | 27557 ft | 463 kts | 254° |
| 2026-05-06 12:34 | 44.10599 | 41.44261 | 28032 ft | 463 kts | 248° |
| 2026-05-06 12:34 | 44.09384 | 41.40087 | 28259 ft | 468 kts | 247° |
| 2026-05-06 12:34 | 44.08135 | 41.35892 | 28566 ft | 470 kts | 247° |
| 2026-05-06 12:34 | 44.06885 | 41.31749 | 28872 ft | 472 kts | 246° |
| 2026-05-06 12:35 | 44.05605 | 41.27553 | 29331 ft | 470 kts | 246° |
| 2026-05-06 12:35 | 44.04311 | 41.23319 | 29735 ft | 471 kts | 246° |
| 2026-05-06 12:35 | 44.03045 | 41.19185 | 30117 ft | 471 kts | 246° |
| 2026-05-06 12:35 | 44.01760 | 41.15001 | 30538 ft | 469 kts | 246° |
| 2026-05-06 12:36 | 44.00479 | 41.10833 | 30907 ft | 469 kts | 246° |
| 2026-05-06 12:36 | 43.99196 | 41.06664 | 31217 ft | 470 kts | 246° |
| 2026-05-06 12:36 | 43.97909 | 41.02490 | 31572 ft | 470 kts | 246° |
| 2026-05-06 12:36 | 43.96621 | 40.98324 | 31936 ft | 469 kts | 246° |
| 2026-05-06 12:37 | 43.95334 | 40.94163 | 32266 ft | 470 kts | 246° |
| 2026-05-06 12:37 | 43.94044 | 40.89998 | 32615 ft | 469 kts | 246° |
| 2026-05-06 12:37 | 43.92756 | 40.85849 | 32939 ft | 468 kts | 246° |
| 2026-05-06 12:37 | 43.91467 | 40.81693 | 33227 ft | 469 kts | 246° |
| 2026-05-06 12:38 | 43.90174 | 40.77555 | 33627 ft | 468 kts | 246° |
| 2026-05-06 12:38 | 43.88887 | 40.73415 | 33909 ft | 468 kts | 246° |
| 2026-05-06 12:38 | 43.87576 | 40.69268 | 34246 ft | 467 kts | 245° |
| 2026-05-06 12:38 | 43.86263 | 40.65160 | 34520 ft | 466 kts | 246° |
| 2026-05-06 12:39 | 43.84953 | 40.61046 | 34714 ft | 467 kts | 246° |
| 2026-05-06 12:39 | 43.83661 | 40.56989 | 34992 ft | 464 kts | 245° |
| 2026-05-06 12:39 | 43.82359 | 40.52893 | 35222 ft | 466 kts | 245° |
| 2026-05-06 12:39 | 43.81039 | 40.48779 | 35386 ft | 469 kts | 245° |
| 2026-05-06 12:40 | 43.79724 | 40.44664 | 35712 ft | 466 kts | 245° |
| 2026-05-06 12:40 | 43.78410 | 40.40561 | 35969 ft | 466 kts | 245° |
| 2026-05-06 12:40 | 43.77094 | 40.36466 | 36182 ft | 466 kts | 245° |
| 2026-05-06 12:40 | 43.75776 | 40.32365 | 36405 ft | 466 kts | 245° |
| 2026-05-06 12:41 | 43.74459 | 40.28278 | 36693 ft | 464 kts | 245° |
| 2026-05-06 12:41 | 43.73144 | 40.24197 | 36932 ft | 464 kts | 245° |
| 2026-05-06 12:41 | 43.71826 | 40.20124 | 37139 ft | 464 kts | 245° |
| 2026-05-06 12:41 | 43.70512 | 40.16059 | 37349 ft | 463 kts | 245° |
| 2026-05-06 12:42 | 43.69197 | 40.11999 | 37603 ft | 462 kts | 245° |
| 2026-05-06 12:42 | 43.67882 | 40.07949 | 37799 ft | 462 kts | 245° |
| 2026-05-06 12:42 | 43.66566 | 40.03901 | 37978 ft | 461 kts | 245° |
| 2026-05-06 12:42 | 43.65250 | 39.99858 | 38127 ft | 462 kts | 245° |
| 2026-05-06 12:43 | 43.62635 | 39.91845 | 38109 ft | 460 kts | 245° |
| 2026-05-06 12:43 | 43.59996 | 39.83779 | 38131 ft | 462 kts | 245° |
| 2026-05-06 12:44 | 43.57046 | 39.75972 | 38097 ft | 458 kts | 228° |
| 2026-05-06 12:44 | 43.54682 | 39.73087 | 38129 ft | 454 kts | 212° |
| 2026-05-06 12:44 | 43.51881 | 39.71080 | 38108 ft | 456 kts | 199° |
| 2026-05-06 12:45 | 43.45728 | 39.68947 | 38147 ft | 458 kts | 191° |
| 2026-05-06 12:46 | 43.36357 | 39.66617 | 38133 ft | 457 kts | 189° |
| 2026-05-06 12:46 | 43.30082 | 39.65182 | 38132 ft | 457 kts | 189° |
| 2026-05-06 12:47 | 43.23813 | 39.63765 | 38131 ft | 457 kts | 189° |
| 2026-05-06 12:47 | 43.17541 | 39.62350 | 38129 ft | 457 kts | 189° |
| 2026-05-06 12:48 | 43.11277 | 39.60940 | 38127 ft | 456 kts | 189° |
| 2026-05-06 12:48 | 43.05025 | 39.59536 | 38132 ft | 455 kts | 189° |
| 2026-05-06 12:49 | 42.98776 | 39.58134 | 38133 ft | 454 kts | 189° |
| 2026-05-06 12:49 | 42.92545 | 39.56738 | 38119 ft | 454 kts | 189° |
| 2026-05-06 12:50 | 42.86305 | 39.55344 | 38124 ft | 455 kts | 189° |
| 2026-05-06 12:50 | 42.80057 | 39.53952 | 38116 ft | 454 kts | 189° |
| 2026-05-06 12:51 | 42.73869 | 39.52574 | 38133 ft | 453 kts | 189° |
| 2026-05-06 12:51 | 42.67643 | 39.51192 | 38131 ft | 453 kts | 189° |
| 2026-05-06 12:52 | 42.61401 | 39.49805 | 38126 ft | 455 kts | 189° |
| 2026-05-06 12:52 | 42.55164 | 39.48420 | 38128 ft | 454 kts | 190° |
| 2026-05-06 12:53 | 42.48923 | 39.47036 | 38127 ft | 455 kts | 189° |
| 2026-05-06 12:53 | 42.42674 | 39.45652 | 38125 ft | 455 kts | 189° |
| 2026-05-06 12:54 | 42.36423 | 39.44273 | 38133 ft | 455 kts | 190° |
| 2026-05-06 12:54 | 42.30177 | 39.42896 | 38129 ft | 455 kts | 190° |
| 2026-05-06 12:55 | 42.23922 | 39.41520 | 38127 ft | 455 kts | 190° |
| 2026-05-06 12:55 | 42.17633 | 39.40828 | 38096 ft | 455 kts | 171° |
| 2026-05-06 12:56 | 42.11448 | 39.42719 | 38082 ft | 458 kts | 168° |
| 2026-05-06 12:56 | 42.05239 | 39.44731 | 38134 ft | 460 kts | 167° |
| 2026-05-06 12:57 | 41.99039 | 39.46797 | 38128 ft | 459 kts | 167° |
| 2026-05-06 12:57 | 41.92846 | 39.48866 | 38126 ft | 458 kts | 167° |
| 2026-05-06 12:58 | 41.86660 | 39.50929 | 38129 ft | 458 kts | 167° |
| 2026-05-06 12:58 | 41.80469 | 39.52980 | 38132 ft | 458 kts | 167° |
| 2026-05-06 12:59 | 41.74276 | 39.55027 | 38129 ft | 458 kts | 167° |
| 2026-05-06 12:59 | 41.68088 | 39.57069 | 38134 ft | 457 kts | 167° |
| 2026-05-06 13:00 | 41.61915 | 39.59115 | 38137 ft | 457 kts | 167° |
| 2026-05-06 13:00 | 41.55738 | 39.61164 | 38140 ft | 457 kts | 167° |
| 2026-05-06 13:01 | 41.50605 | 39.62863 | 38140 ft | 457 kts | 168° |
| 2026-05-06 13:01 | 41.44443 | 39.64893 | 38136 ft | 456 kts | 168° |
| 2026-05-06 13:02 | 41.38281 | 39.66918 | 38143 ft | 456 kts | 168° |
| 2026-05-06 13:02 | 41.32112 | 39.68941 | 38145 ft | 456 kts | 168° |
| 2026-05-06 13:03 | 41.25951 | 39.70958 | 38148 ft | 456 kts | 168° |
| 2026-05-06 13:03 | 41.19786 | 39.72973 | 38151 ft | 456 kts | 168° |
| 2026-05-06 13:04 | 41.13662 | 39.74970 | 38167 ft | 457 kts | 168° |
| 2026-05-06 13:04 | 41.07489 | 39.76874 | 38134 ft | 453 kts | 176° |
| 2026-05-06 13:04 | 41.04380 | 39.76714 | 38125 ft | 445 kts | 195° |
| 2026-05-06 13:05 | 41.01516 | 39.75256 | 38176 ft | 442 kts | 211° |
| 2026-05-06 13:05 | 40.96716 | 39.70170 | 38127 ft | 444 kts | 230° |
| 2026-05-06 13:06 | 40.93365 | 39.63364 | 38194 ft | 444 kts | 240° |
| 2026-05-06 13:06 | 40.90385 | 39.56206 | 38157 ft | 444 kts | 242° |
| 2026-05-06 13:07 | 40.87493 | 39.48982 | 38148 ft | 444 kts | 242° |
| 2026-05-06 13:07 | 40.84642 | 39.41796 | 38138 ft | 444 kts | 242° |
| 2026-05-06 13:08 | 40.81770 | 39.34565 | 38132 ft | 445 kts | 242° |
| 2026-05-06 13:08 | 40.78891 | 39.27335 | 38128 ft | 445 kts | 242° |
| 2026-05-06 13:09 | 40.76008 | 39.20110 | 38134 ft | 445 kts | 242° |
| 2026-05-06 13:09 | 40.73111 | 39.12867 | 38139 ft | 447 kts | 242° |
| 2026-05-06 13:10 | 40.70204 | 39.05621 | 38116 ft | 447 kts | 242° |
| 2026-05-06 13:10 | 40.67292 | 38.98376 | 38137 ft | 447 kts | 242° |
| 2026-05-06 13:11 | 40.64376 | 38.91140 | 38125 ft | 447 kts | 242° |
| 2026-05-06 13:11 | 40.61443 | 38.83914 | 38125 ft | 447 kts | 242° |
| 2026-05-06 13:12 | 40.58532 | 38.76756 | 38124 ft | 447 kts | 242° |
| 2026-05-06 13:12 | 40.55596 | 38.69552 | 38114 ft | 447 kts | 242° |
| 2026-05-06 13:13 | 40.52655 | 38.62351 | 38121 ft | 447 kts | 242° |
| 2026-05-06 13:13 | 40.49656 | 38.55181 | 38110 ft | 447 kts | 241° |
| 2026-05-06 13:14 | 40.46610 | 38.48071 | 38104 ft | 447 kts | 241° |
| 2026-05-06 13:14 | 40.43582 | 38.41000 | 38102 ft | 447 kts | 241° |
| 2026-05-06 13:15 | 40.40535 | 38.33898 | 38093 ft | 447 kts | 241° |
| 2026-05-06 13:15 | 40.37529 | 38.26760 | 38102 ft | 447 kts | 243° |
| 2026-05-06 13:16 | 40.34622 | 38.19562 | 38083 ft | 446 kts | 242° |
| 2026-05-06 13:16 | 40.31654 | 38.12413 | 38087 ft | 447 kts | 242° |
| 2026-05-06 13:17 | 40.28648 | 38.05296 | 38085 ft | 447 kts | 242° |
| 2026-05-06 13:17 | 40.25650 | 37.98203 | 38082 ft | 446 kts | 242° |
| 2026-05-06 13:18 | 40.22631 | 37.91071 | 38072 ft | 446 kts | 242° |
| 2026-05-06 13:18 | 40.19619 | 37.83975 | 38078 ft | 446 kts | 242° |
| 2026-05-06 13:19 | 40.16605 | 37.76890 | 38080 ft | 445 kts | 242° |
| 2026-05-06 13:19 | 40.13590 | 37.69820 | 38080 ft | 446 kts | 242° |
| 2026-05-06 13:20 | 40.10566 | 37.62746 | 38076 ft | 446 kts | 242° |
| 2026-05-06 13:20 | 40.07545 | 37.55673 | 38082 ft | 446 kts | 242° |
| 2026-05-06 13:21 | 40.04528 | 37.48608 | 38079 ft | 446 kts | 242° |
| 2026-05-06 13:21 | 40.01506 | 37.41547 | 38083 ft | 446 kts | 242° |
| 2026-05-06 13:22 | 39.98479 | 37.34491 | 38074 ft | 445 kts | 242° |
| 2026-05-06 13:22 | 39.95455 | 37.27459 | 38077 ft | 445 kts | 242° |
| 2026-05-06 13:23 | 39.92426 | 37.20430 | 38082 ft | 445 kts | 242° |
| 2026-05-06 13:23 | 39.89393 | 37.13408 | 38086 ft | 445 kts | 242° |
| 2026-05-06 13:24 | 39.86355 | 37.06392 | 38091 ft | 444 kts | 242° |
| 2026-05-06 13:24 | 39.83340 | 36.99446 | 38103 ft | 444 kts | 242° |
| 2026-05-06 13:25 | 39.80294 | 36.92399 | 38100 ft | 443 kts | 245° |
| 2026-05-06 13:25 | 39.79308 | 36.88635 | 38054 ft | 438 kts | 263° |
| 2026-05-06 13:25 | 39.79095 | 36.84705 | 38138 ft | 437 kts | 268° |
| 2026-05-06 13:26 | 39.78901 | 36.76817 | 38097 ft | 440 kts | 269° |
| 2026-05-06 13:26 | 39.78804 | 36.68848 | 38093 ft | 441 kts | 270° |
| 2026-05-06 13:27 | 39.78734 | 36.60878 | 38091 ft | 441 kts | 270° |
| 2026-05-06 13:27 | 39.78662 | 36.52918 | 38088 ft | 440 kts | 270° |
| 2026-05-06 13:28 | 39.78585 | 36.44959 | 38073 ft | 440 kts | 270° |
| 2026-05-06 13:28 | 39.78504 | 36.36985 | 38076 ft | 442 kts | 270° |
| 2026-05-06 13:29 | 39.78415 | 36.29015 | 38072 ft | 440 kts | 270° |
| 2026-05-06 13:29 | 39.78017 | 36.21022 | 38094 ft | 440 kts | 264° |
| 2026-05-06 13:30 | 39.77381 | 36.13146 | 38069 ft | 440 kts | 265° |
| 2026-05-06 13:30 | 39.76774 | 36.05168 | 38074 ft | 441 kts | 265° |
| 2026-05-06 13:31 | 39.76177 | 35.97290 | 38081 ft | 441 kts | 265° |
| 2026-05-06 13:31 | 39.75568 | 35.89313 | 38050 ft | 440 kts | 265° |
| 2026-05-06 13:32 | 39.74961 | 35.81461 | 38059 ft | 439 kts | 265° |
| 2026-05-06 13:32 | 39.74342 | 35.73511 | 38061 ft | 439 kts | 265° |
| 2026-05-06 13:33 | 39.73726 | 35.65673 | 38056 ft | 439 kts | 265° |
| 2026-05-06 13:33 | 39.73100 | 35.57776 | 38055 ft | 439 kts | 265° |
| 2026-05-06 13:34 | 39.72443 | 35.49880 | 38062 ft | 440 kts | 265° |
| 2026-05-06 13:34 | 39.71783 | 35.41986 | 38067 ft | 439 kts | 265° |
| 2026-05-06 13:35 | 39.71121 | 35.34120 | 38073 ft | 438 kts | 265° |
| 2026-05-06 13:35 | 39.70452 | 35.26239 | 38062 ft | 438 kts | 265° |
| 2026-05-06 13:36 | 39.69779 | 35.18369 | 38072 ft | 438 kts | 265° |
| 2026-05-06 13:36 | 39.69101 | 35.10500 | 38066 ft | 439 kts | 265° |
| 2026-05-06 13:37 | 39.68416 | 35.02627 | 38069 ft | 439 kts | 265° |
| 2026-05-06 13:37 | 39.67725 | 34.94753 | 38077 ft | 438 kts | 265° |
| 2026-05-06 13:38 | 39.67036 | 34.86941 | 38080 ft | 439 kts | 265° |
| 2026-05-06 13:38 | 39.66331 | 34.79025 | 38084 ft | 439 kts | 265° |
| 2026-05-06 13:39 | 39.65630 | 34.71210 | 38092 ft | 439 kts | 265° |
| 2026-05-06 13:39 | 39.64919 | 34.63346 | 38089 ft | 439 kts | 265° |
| 2026-05-06 13:40 | 39.64203 | 34.55484 | 38085 ft | 438 kts | 265° |
| 2026-05-06 13:40 | 39.63485 | 34.47640 | 38094 ft | 438 kts | 265° |
| 2026-05-06 13:41 | 39.62758 | 34.39791 | 38088 ft | 438 kts | 265° |
| 2026-05-06 13:41 | 39.62026 | 34.31945 | 38100 ft | 438 kts | 265° |
| 2026-05-06 13:42 | 39.61290 | 34.24100 | 38091 ft | 438 kts | 265° |
| 2026-05-06 13:42 | 39.60548 | 34.16262 | 38105 ft | 438 kts | 265° |
| 2026-05-06 13:43 | 39.59803 | 34.08446 | 38103 ft | 436 kts | 265° |
| 2026-05-06 13:43 | 39.59055 | 34.00644 | 38099 ft | 436 kts | 265° |
| 2026-05-06 13:44 | 39.58301 | 33.92842 | 38092 ft | 436 kts | 265° |
| 2026-05-06 13:44 | 39.57542 | 33.85045 | 38097 ft | 436 kts | 265° |
| 2026-05-06 13:45 | 39.56776 | 33.77241 | 38096 ft | 437 kts | 265° |
| 2026-05-06 13:45 | 39.55622 | 33.65552 | 38086 ft | 436 kts | 265° |
| 2026-05-06 13:46 | 39.54845 | 33.57762 | 38096 ft | 436 kts | 265° |
| 2026-05-06 13:46 | 39.54063 | 33.49959 | 38094 ft | 436 kts | 265° |
| 2026-05-06 13:47 | 39.53276 | 33.42163 | 38087 ft | 436 kts | 265° |
| 2026-05-06 13:47 | 39.52490 | 33.34430 | 38088 ft | 436 kts | 265° |
| 2026-05-06 13:48 | 39.51694 | 33.26643 | 38080 ft | 436 kts | 265° |
| 2026-05-06 13:48 | 39.50885 | 33.18868 | 38085 ft | 435 kts | 265° |
| 2026-05-06 13:49 | 39.50205 | 33.12368 | 38091 ft | 435 kts | 265° |
| 2026-05-06 13:49 | 39.49256 | 33.03344 | 38081 ft | 435 kts | 265° |
| 2026-05-06 13:50 | 39.48567 | 32.96841 | 38092 ft | 435 kts | 265° |
| 2026-05-06 13:50 | 39.47746 | 32.89081 | 38084 ft | 435 kts | 265° |
| 2026-05-06 13:51 | 39.46931 | 32.81367 | 38072 ft | 435 kts | 265° |
| 2026-05-06 13:51 | 39.46107 | 32.73621 | 38092 ft | 434 kts | 265° |
| 2026-05-06 13:52 | 39.45278 | 32.65886 | 38091 ft | 434 kts | 265° |
| 2026-05-06 13:52 | 39.44446 | 32.58161 | 38084 ft | 434 kts | 265° |
| 2026-05-06 13:53 | 39.43459 | 32.50435 | 38059 ft | 438 kts | 254° |
| 2026-05-06 13:53 | 39.41255 | 32.43073 | 38046 ft | 440 kts | 252° |
| 2026-05-06 13:54 | 39.38141 | 32.36297 | 38086 ft | 448 kts | 225° |
| 2026-05-06 13:54 | 39.35585 | 32.33945 | 38090 ft | 456 kts | 213° |
| 2026-05-06 13:54 | 39.32808 | 32.31919 | 38087 ft | 460 kts | 213° |
| 2026-05-06 13:55 | 39.27141 | 32.28047 | 38090 ft | 461 kts | 211° |
| 2026-05-06 13:55 | 39.21426 | 32.24291 | 38088 ft | 461 kts | 211° |
| 2026-05-06 13:56 | 39.15694 | 32.20566 | 38099 ft | 461 kts | 211° |
| 2026-05-06 13:56 | 39.09966 | 32.16854 | 38091 ft | 461 kts | 211° |
| 2026-05-06 13:57 | 39.04245 | 32.13153 | 38094 ft | 460 kts | 210° |
| 2026-05-06 13:57 | 38.98531 | 32.09463 | 38096 ft | 459 kts | 211° |
| 2026-05-06 13:58 | 38.92815 | 32.05779 | 38081 ft | 460 kts | 210° |
| 2026-05-06 13:58 | 38.87095 | 32.02099 | 38104 ft | 460 kts | 210° |
| 2026-05-06 13:59 | 38.81381 | 31.98429 | 38100 ft | 459 kts | 210° |
| 2026-05-06 13:59 | 38.75661 | 31.94762 | 38084 ft | 459 kts | 210° |
| 2026-05-06 14:00 | 38.69955 | 31.91110 | 38098 ft | 458 kts | 210° |
| 2026-05-06 14:00 | 38.64257 | 31.87470 | 38106 ft | 458 kts | 210° |
| 2026-05-06 14:01 | 38.58595 | 31.83860 | 38088 ft | 457 kts | 210° |
| 2026-05-06 14:01 | 38.52908 | 31.80240 | 38100 ft | 457 kts | 210° |
| 2026-05-06 14:02 | 38.47175 | 31.76598 | 38105 ft | 458 kts | 210° |
| 2026-05-06 14:02 | 38.41500 | 31.72998 | 38091 ft | 458 kts | 211° |
| 2026-05-06 14:03 | 38.35794 | 31.69386 | 38104 ft | 458 kts | 210° |
| 2026-05-06 14:03 | 38.30093 | 31.65783 | 38107 ft | 458 kts | 210° |
| 2026-05-06 14:04 | 38.24389 | 31.62184 | 38109 ft | 458 kts | 210° |
| 2026-05-06 14:04 | 38.18684 | 31.58590 | 38106 ft | 457 kts | 210° |
| 2026-05-06 14:05 | 38.12980 | 31.55003 | 38110 ft | 458 kts | 210° |
| 2026-05-06 14:05 | 38.07215 | 31.51530 | 38093 ft | 458 kts | 210° |
| 2026-05-06 14:06 | 38.01439 | 31.48052 | 38115 ft | 460 kts | 210° |
| 2026-05-06 14:06 | 37.95661 | 31.44576 | 38111 ft | 460 kts | 210° |
| 2026-05-06 14:07 | 37.89881 | 31.41104 | 38108 ft | 459 kts | 210° |
| 2026-05-06 14:07 | 37.84118 | 31.37648 | 38108 ft | 458 kts | 210° |
| 2026-05-06 14:08 | 37.78350 | 31.34195 | 38112 ft | 458 kts | 210° |
| 2026-05-06 14:08 | 37.72586 | 31.30751 | 38086 ft | 458 kts | 210° |
| 2026-05-06 14:09 | 37.66829 | 31.27318 | 38107 ft | 458 kts | 210° |
| 2026-05-06 14:09 | 37.61056 | 31.23879 | 38092 ft | 458 kts | 210° |
| 2026-05-06 14:10 | 37.55324 | 31.20471 | 38106 ft | 458 kts | 210° |
| 2026-05-06 14:10 | 37.49549 | 31.17045 | 38088 ft | 458 kts | 210° |
| 2026-05-06 14:11 | 37.43766 | 31.13618 | 38136 ft | 461 kts | 210° |
| 2026-05-06 14:11 | 37.37947 | 31.10176 | 38056 ft | 457 kts | 211° |
| 2026-05-06 14:12 | 37.32349 | 31.06432 | 38076 ft | 456 kts | 214° |
| 2026-05-06 14:12 | 37.26805 | 31.02675 | 38067 ft | 456 kts | 213° |
| 2026-05-06 14:13 | 37.21215 | 30.98920 | 38061 ft | 455 kts | 214° |
| 2026-05-06 14:13 | 37.15613 | 30.95167 | 38020 ft | 456 kts | 214° |
| 2026-05-06 14:14 | 37.10013 | 30.91419 | 38068 ft | 458 kts | 214° |
| 2026-05-06 14:14 | 37.04399 | 30.87669 | 38037 ft | 456 kts | 214° |
| 2026-05-06 14:15 | 36.98796 | 30.83933 | 38042 ft | 456 kts | 214° |
| 2026-05-06 14:15 | 36.93093 | 30.80404 | 38015 ft | 464 kts | 201° |
| 2026-05-06 14:16 | 36.89878 | 30.79761 | 38035 ft | 473 kts | 186° |
| 2026-05-06 14:16 | 36.86571 | 30.79776 | 38045 ft | 478 kts | 185° |
| 2026-05-06 14:16 | 36.79867 | 30.79892 | 38279 ft | 482 kts | 184° |
| 2026-05-06 14:17 | 36.76514 | 30.79993 | 38468 ft | 483 kts | 184° |
| 2026-05-06 14:17 | 36.73156 | 30.80105 | 38677 ft | 482 kts | 184° |
| 2026-05-06 14:17 | 36.69804 | 30.80221 | 38843 ft | 482 kts | 184° |
| 2026-05-06 14:17 | 36.66452 | 30.80336 | 38989 ft | 481 kts | 183° |
| 2026-05-06 14:18 | 36.59745 | 30.80568 | 39047 ft | 482 kts | 183° |
| 2026-05-06 14:18 | 36.53056 | 30.80799 | 39049 ft | 480 kts | 183° |
| 2026-05-06 14:19 | 36.46372 | 30.81029 | 39047 ft | 480 kts | 183° |
| 2026-05-06 14:19 | 36.39721 | 30.81254 | 39048 ft | 480 kts | 183° |
| 2026-05-06 14:20 | 36.33028 | 30.81478 | 39048 ft | 481 kts | 183° |
| 2026-05-06 14:20 | 36.26343 | 30.81701 | 39047 ft | 481 kts | 183° |
| 2026-05-06 14:21 | 36.19662 | 30.81925 | 39039 ft | 479 kts | 183° |
| 2026-05-06 14:21 | 36.13018 | 30.82146 | 39046 ft | 477 kts | 183° |
| 2026-05-06 14:22 | 36.06381 | 30.82367 | 39053 ft | 477 kts | 183° |
| 2026-05-06 14:22 | 35.99732 | 30.82751 | 39043 ft | 478 kts | 182° |
| 2026-05-06 14:23 | 35.93098 | 30.83149 | 39050 ft | 477 kts | 182° |
| 2026-05-06 14:23 | 35.86467 | 30.83540 | 39055 ft | 477 kts | 182° |
| 2026-05-06 14:24 | 35.79836 | 30.83930 | 39030 ft | 477 kts | 182° |
| 2026-05-06 14:24 | 35.73218 | 30.84319 | 39049 ft | 476 kts | 182° |
| 2026-05-06 14:25 | 35.66609 | 30.84707 | 39055 ft | 476 kts | 182° |
| 2026-05-06 14:25 | 35.59999 | 30.85021 | 39056 ft | 475 kts | 184° |
| 2026-05-06 14:26 | 35.53392 | 30.85236 | 39054 ft | 474 kts | 184° |
| 2026-05-06 14:26 | 35.46797 | 30.85466 | 39049 ft | 474 kts | 184° |
| 2026-05-06 14:27 | 35.40198 | 30.85696 | 39054 ft | 474 kts | 184° |
| 2026-05-06 14:27 | 35.33606 | 30.85925 | 39035 ft | 474 kts | 184° |
| 2026-05-06 14:28 | 35.27052 | 30.86154 | 39056 ft | 474 kts | 184° |
| 2026-05-06 14:28 | 35.20459 | 30.86383 | 39058 ft | 474 kts | 184° |
| 2026-05-06 14:29 | 35.13870 | 30.86603 | 39045 ft | 474 kts | 184° |
| 2026-05-06 14:29 | 35.08347 | 30.86787 | 39057 ft | 473 kts | 184° |
| 2026-05-06 14:30 | 35.00695 | 30.87042 | 39062 ft | 473 kts | 184° |
| 2026-05-06 14:30 | 34.94110 | 30.87261 | 39064 ft | 473 kts | 184° |
| 2026-05-06 14:31 | 34.87526 | 30.87480 | 39057 ft | 472 kts | 184° |
| 2026-05-06 14:31 | 34.82066 | 30.87660 | 39062 ft | 472 kts | 184° |
| 2026-05-06 14:32 | 34.75489 | 30.87877 | 39064 ft | 472 kts | 184° |
| 2026-05-06 14:32 | 34.68909 | 30.88094 | 39041 ft | 472 kts | 184° |
| 2026-05-06 14:33 | 34.62355 | 30.88317 | 39062 ft | 470 kts | 183° |
| 2026-05-06 14:33 | 34.55827 | 30.88647 | 39071 ft | 469 kts | 183° |
| 2026-05-06 14:34 | 34.49297 | 30.88964 | 39073 ft | 470 kts | 183° |
| 2026-05-06 14:34 | 34.42767 | 30.89278 | 39060 ft | 469 kts | 183° |
| 2026-05-06 14:35 | 34.36250 | 30.89591 | 39065 ft | 469 kts | 183° |
| 2026-05-06 14:35 | 34.29730 | 30.89904 | 39067 ft | 469 kts | 183° |
| 2026-05-06 14:36 | 34.23208 | 30.90235 | 39071 ft | 469 kts | 183° |
| 2026-05-06 14:36 | 34.16735 | 30.90597 | 39073 ft | 469 kts | 183° |
| 2026-05-06 14:37 | 34.10213 | 30.90957 | 39074 ft | 469 kts | 183° |
| 2026-05-06 14:37 | 34.03694 | 30.91315 | 39072 ft | 469 kts | 183° |
| 2026-05-06 14:38 | 33.97179 | 30.91673 | 39066 ft | 468 kts | 183° |
| 2026-05-06 14:38 | 33.90693 | 30.91922 | 39072 ft | 466 kts | 184° |
| 2026-05-06 14:39 | 33.84208 | 30.92168 | 39067 ft | 467 kts | 184° |
| 2026-05-06 14:39 | 33.77719 | 30.92418 | 39061 ft | 466 kts | 184° |
| 2026-05-06 14:40 | 33.71251 | 30.92666 | 39069 ft | 464 kts | 184° |
| 2026-05-06 14:40 | 33.64796 | 30.92914 | 39072 ft | 464 kts | 184° |
| 2026-05-06 14:41 | 33.58333 | 30.93162 | 39077 ft | 464 kts | 184° |
| 2026-05-06 14:41 | 33.51876 | 30.93408 | 39067 ft | 465 kts | 184° |
| 2026-05-06 14:42 | 33.45401 | 30.93656 | 39078 ft | 466 kts | 184° |
| 2026-05-06 14:42 | 33.38927 | 30.93903 | 39080 ft | 465 kts | 184° |
| 2026-05-06 14:43 | 33.32451 | 30.94149 | 39064 ft | 466 kts | 184° |
| 2026-05-06 14:43 | 33.25976 | 30.94395 | 39079 ft | 466 kts | 184° |
| 2026-05-06 14:44 | 33.19498 | 30.94641 | 39078 ft | 465 kts | 184° |
| 2026-05-06 14:45 | 33.09782 | 30.95077 | 39078 ft | 469 kts | 179° |
| 2026-05-06 14:45 | 33.03299 | 30.95885 | 39088 ft | 469 kts | 180° |
| 2026-05-06 14:46 | 32.96818 | 30.96614 | 39080 ft | 467 kts | 180° |
| 2026-05-06 14:46 | 32.90340 | 30.97330 | 39087 ft | 467 kts | 181° |
| 2026-05-06 14:47 | 32.83858 | 30.98045 | 39065 ft | 468 kts | 180° |
| 2026-05-06 14:47 | 32.77379 | 30.98757 | 39085 ft | 467 kts | 180° |
| 2026-05-06 14:48 | 32.70907 | 30.99469 | 39083 ft | 467 kts | 180° |
| 2026-05-06 14:48 | 32.64432 | 31.00179 | 39088 ft | 467 kts | 180° |
| 2026-05-06 14:49 | 32.57954 | 31.00889 | 39081 ft | 466 kts | 180° |
| 2026-05-06 14:49 | 32.51492 | 31.01596 | 39085 ft | 466 kts | 181° |
| 2026-05-06 14:50 | 32.45030 | 31.02302 | 39089 ft | 466 kts | 181° |
| 2026-05-06 14:50 | 32.38565 | 31.03007 | 39088 ft | 466 kts | 181° |
| 2026-05-06 14:51 | 32.32110 | 31.03710 | 39086 ft | 466 kts | 181° |
| 2026-05-06 14:51 | 32.25703 | 31.04407 | 39088 ft | 465 kts | 181° |
| 2026-05-06 14:52 | 32.19259 | 31.05107 | 39091 ft | 465 kts | 181° |
| 2026-05-06 14:52 | 32.12812 | 31.05807 | 39068 ft | 465 kts | 181° |
| 2026-05-06 14:53 | 32.06381 | 31.06503 | 39085 ft | 464 kts | 181° |
| 2026-05-06 14:53 | 31.99959 | 31.07197 | 39090 ft | 463 kts | 181° |
| 2026-05-06 14:54 | 31.93535 | 31.07890 | 39088 ft | 463 kts | 181° |
| 2026-05-06 14:54 | 31.87109 | 31.08582 | 39087 ft | 463 kts | 181° |
| 2026-05-06 14:55 | 31.80685 | 31.09272 | 39090 ft | 463 kts | 181° |
| 2026-05-06 14:55 | 31.74266 | 31.09961 | 39088 ft | 463 kts | 181° |
| 2026-05-06 14:56 | 31.67845 | 31.10650 | 39090 ft | 463 kts | 181° |
| 2026-05-06 14:56 | 31.61431 | 31.11337 | 39081 ft | 462 kts | 181° |
| 2026-05-06 14:57 | 31.55032 | 31.12021 | 39083 ft | 461 kts | 181° |
| 2026-05-06 14:57 | 31.48700 | 31.13135 | 39101 ft | 464 kts | 177° |
| 2026-05-06 14:58 | 31.42320 | 31.14328 | 39081 ft | 464 kts | 177° |
| 2026-05-06 14:58 | 31.35937 | 31.15489 | 39078 ft | 464 kts | 177° |
| 2026-05-06 14:59 | 31.29563 | 31.16645 | 39082 ft | 463 kts | 178° |
| 2026-05-06 14:59 | 31.23193 | 31.17812 | 39078 ft | 463 kts | 177° |
| 2026-05-06 15:00 | 31.16825 | 31.19002 | 39077 ft | 464 kts | 177° |
| 2026-05-06 15:00 | 31.10458 | 31.20188 | 39068 ft | 463 kts | 177° |
| 2026-05-06 15:01 | 31.04128 | 31.21365 | 39070 ft | 463 kts | 177° |
| 2026-05-06 15:01 | 30.97765 | 31.22547 | 39070 ft | 463 kts | 177° |
| 2026-05-06 15:02 | 30.91405 | 31.23726 | 39061 ft | 463 kts | 177° |
| 2026-05-06 15:02 | 30.85044 | 31.24904 | 39057 ft | 462 kts | 177° |
| 2026-05-06 15:03 | 30.78690 | 31.26080 | 39055 ft | 462 kts | 178° |
| 2026-05-06 15:03 | 30.72340 | 31.27253 | 39050 ft | 462 kts | 177° |
| 2026-05-06 15:04 | 30.66041 | 31.28415 | 39057 ft | 462 kts | 177° |
| 2026-05-06 15:04 | 30.59694 | 31.29584 | 39042 ft | 462 kts | 178° |
| 2026-05-06 15:05 | 30.53341 | 31.30753 | 39044 ft | 462 kts | 178° |
| 2026-05-06 15:05 | 30.46999 | 31.31919 | 39049 ft | 462 kts | 178° |
| 2026-05-06 15:06 | 30.40651 | 31.33086 | 39048 ft | 462 kts | 178° |
| 2026-05-06 15:06 | 30.34314 | 31.34250 | 39038 ft | 461 kts | 178° |
| 2026-05-06 15:07 | 30.27966 | 31.35414 | 39042 ft | 461 kts | 178° |
| 2026-05-06 15:07 | 30.21628 | 31.36575 | 39044 ft | 461 kts | 178° |
| 2026-05-06 15:08 | 30.15285 | 31.37736 | 39053 ft | 461 kts | 178° |
| 2026-05-06 15:08 | 30.09072 | 31.39493 | 39029 ft | 474 kts | 158° |
| 2026-05-06 15:09 | 30.03500 | 31.43839 | 39023 ft | 485 kts | 150° |
| 2026-05-06 15:09 | 29.98076 | 31.48389 | 39055 ft | 486 kts | 149° |
| 2026-05-06 15:10 | 29.92642 | 31.53015 | 39036 ft | 485 kts | 149° |
| 2026-05-06 15:10 | 29.87226 | 31.57629 | 39060 ft | 484 kts | 149° |
| 2026-05-06 15:11 | 29.81802 | 31.62244 | 39040 ft | 484 kts | 149° |
| 2026-05-06 15:11 | 29.76386 | 31.66846 | 39067 ft | 484 kts | 149° |
| 2026-05-06 15:12 | 29.70968 | 31.71442 | 39073 ft | 484 kts | 149° |
| 2026-05-06 15:12 | 29.65550 | 31.76033 | 39073 ft | 483 kts | 149° |
| 2026-05-06 15:13 | 29.60137 | 31.80613 | 39071 ft | 484 kts | 149° |
| 2026-05-06 15:13 | 29.54713 | 31.85196 | 39077 ft | 484 kts | 149° |
| 2026-05-06 15:14 | 29.49299 | 31.89765 | 39057 ft | 483 kts | 149° |
| 2026-05-06 15:14 | 29.43879 | 31.94334 | 39074 ft | 483 kts | 149° |
| 2026-05-06 15:15 | 29.38457 | 31.98895 | 39066 ft | 484 kts | 149° |
| 2026-05-06 15:15 | 29.33035 | 32.03452 | 39071 ft | 483 kts | 149° |
| 2026-05-06 15:16 | 29.27609 | 32.08006 | 39060 ft | 483 kts | 149° |
| 2026-05-06 15:16 | 29.22194 | 32.12545 | 39066 ft | 482 kts | 150° |
| 2026-05-06 15:17 | 29.16776 | 32.17080 | 39061 ft | 482 kts | 150° |
| 2026-05-06 15:17 | 29.11392 | 32.21580 | 39051 ft | 482 kts | 150° |
| 2026-05-06 15:18 | 29.06849 | 32.25374 | 39056 ft | 482 kts | 150° |
| 2026-05-06 15:18 | 29.01440 | 32.29884 | 39050 ft | 482 kts | 150° |
| 2026-05-06 15:19 | 28.96016 | 32.34401 | 39051 ft | 482 kts | 150° |
| 2026-05-06 15:19 | 28.90590 | 32.38913 | 39047 ft | 482 kts | 150° |
| 2026-05-06 15:20 | 28.85165 | 32.43419 | 39027 ft | 482 kts | 150° |
| 2026-05-06 15:20 | 28.79773 | 32.47892 | 39051 ft | 482 kts | 150° |
| 2026-05-06 15:21 | 28.74311 | 32.52417 | 39037 ft | 482 kts | 150° |
| 2026-05-06 15:21 | 28.68912 | 32.56884 | 39034 ft | 482 kts | 150° |
| 2026-05-06 15:22 | 28.63477 | 32.61374 | 39035 ft | 483 kts | 150° |
| 2026-05-06 15:22 | 28.58043 | 32.65857 | 39016 ft | 483 kts | 150° |
| 2026-05-06 15:23 | 28.52603 | 32.70340 | 39010 ft | 482 kts | 150° |
| 2026-05-06 15:23 | 28.47166 | 32.74816 | 38995 ft | 482 kts | 150° |
| 2026-05-06 15:24 | 28.41728 | 32.79285 | 38997 ft | 482 kts | 150° |
| 2026-05-06 15:24 | 28.39013 | 32.81514 | 38813 ft | 481 kts | 150° |
| 2026-05-06 15:24 | 28.36282 | 32.83754 | 37590 ft | 488 kts | 150° |
| 2026-05-06 15:24 | 28.33525 | 32.86017 | 36621 ft | 489 kts | 150° |
| 2026-05-06 15:25 | 28.30775 | 32.88271 | 36001 ft | 486 kts | 150° |
| 2026-05-06 15:25 | 28.28036 | 32.90514 | 35384 ft | 485 kts | 150° |
| 2026-05-06 15:25 | 28.25301 | 32.92752 | 34666 ft | 486 kts | 149° |
| 2026-05-06 15:25 | 28.22548 | 32.95003 | 33818 ft | 490 kts | 149° |
| 2026-05-06 15:26 | 28.19776 | 32.97270 | 32915 ft | 492 kts | 149° |
| 2026-05-06 15:26 | 28.17032 | 32.99513 | 32131 ft | 493 kts | 149° |
| 2026-05-06 15:26 | 28.14251 | 33.01783 | 31363 ft | 493 kts | 149° |
| 2026-05-06 15:26 | 28.11464 | 33.04058 | 30538 ft | 495 kts | 149° |
| 2026-05-06 15:27 | 28.08659 | 33.06345 | 29562 ft | 498 kts | 149° |
| 2026-05-06 15:27 | 28.05840 | 33.08643 | 28548 ft | 500 kts | 148° |
| 2026-05-06 15:27 | 28.03016 | 33.10942 | 27611 ft | 500 kts | 148° |
| 2026-05-06 15:27 | 28.00171 | 33.13253 | 26404 ft | 506 kts | 148° |
| 2026-05-06 15:28 | 27.97328 | 33.15565 | 25744 ft | 499 kts | 148° |
| 2026-05-06 15:28 | 27.94529 | 33.17840 | 25075 ft | 493 kts | 148° |
| 2026-05-06 15:28 | 27.91750 | 33.20097 | 24286 ft | 491 kts | 147° |
| 2026-05-06 15:28 | 27.88980 | 33.22346 | 23534 ft | 488 kts | 147° |
| 2026-05-06 15:29 | 27.86234 | 33.24572 | 22750 ft | 483 kts | 147° |
| 2026-05-06 15:29 | 27.83522 | 33.26770 | 22074 ft | 477 kts | 147° |
| 2026-05-06 15:29 | 27.80833 | 33.28949 | 21301 ft | 474 kts | 147° |
| 2026-05-06 15:29 | 27.78169 | 33.31105 | 20673 ft | 467 kts | 147° |
| 2026-05-06 15:30 | 27.75531 | 33.33239 | 19893 ft | 465 kts | 147° |
| 2026-05-06 15:30 | 27.72923 | 33.35348 | 19287 ft | 458 kts | 147° |
| 2026-05-06 15:30 | 27.70330 | 33.37443 | 18261 ft | 455 kts | 147° |
| 2026-05-06 15:30 | 27.67776 | 33.39506 | 17153 ft | 451 kts | 147° |
| 2026-05-06 15:31 | 27.65231 | 33.41560 | 16522 ft | 446 kts | 147° |
| 2026-05-06 15:31 | 27.62730 | 33.43579 | 16034 ft | 438 kts | 147° |
| 2026-05-06 15:31 | 27.60273 | 33.45559 | 15487 ft | 432 kts | 148° |
| 2026-05-06 15:32 | 27.55422 | 33.49467 | 14308 ft | 425 kts | 146° |
| 2026-05-06 15:32 | 27.53032 | 33.51391 | 13827 ft | 419 kts | 146° |
| 2026-05-06 15:32 | 27.50529 | 33.53008 | 12975 ft | 411 kts | 159° |
| 2026-05-06 15:32 | 27.47936 | 33.54266 | 12170 ft | 403 kts | 158° |
| 2026-05-06 15:33 | 27.45387 | 33.55509 | 11851 ft | 393 kts | 159° |
| 2026-05-06 15:33 | 27.42923 | 33.56709 | 11681 ft | 380 kts | 160° |
| 2026-05-06 15:33 | 27.40536 | 33.57871 | 11499 ft | 369 kts | 160° |
| 2026-05-06 15:33 | 27.38212 | 33.59002 | 11310 ft | 359 kts | 159° |
| 2026-05-06 15:34 | 27.35947 | 33.60098 | 11110 ft | 350 kts | 160° |
| 2026-05-06 15:34 | 27.33658 | 33.60857 | 10916 ft | 338 kts | 169° |
| 2026-05-06 15:34 | 27.31402 | 33.61492 | 10723 ft | 330 kts | 169° |
| 2026-05-06 15:34 | 27.29209 | 33.62131 | 10569 ft | 321 kts | 167° |
| 2026-05-06 15:35 | 27.27108 | 33.62758 | 10429 ft | 312 kts | 167° |
| 2026-05-06 15:35 | 27.25043 | 33.63383 | 10304 ft | 303 kts | 167° |
| 2026-05-06 15:35 | 27.23035 | 33.63993 | 10167 ft | 295 kts | 167° |
| 2026-05-06 15:35 | 27.21082 | 33.64589 | 10001 ft | 288 kts | 167° |
| 2026-05-06 15:36 | 27.19155 | 33.65176 | 9697 ft | 286 kts | 167° |
| 2026-05-06 15:36 | 27.17228 | 33.65747 | 9326 ft | 287 kts | 167° |
| 2026-05-06 15:36 | 27.15300 | 33.66317 | 8990 ft | 286 kts | 167° |
| 2026-05-06 15:36 | 27.13378 | 33.66886 | 8678 ft | 285 kts | 168° |
| 2026-05-06 15:37 | 27.11464 | 33.67453 | 8368 ft | 284 kts | 168° |
| 2026-05-06 15:37 | 27.09559 | 33.68017 | 8079 ft | 282 kts | 168° |
| 2026-05-06 15:37 | 27.07658 | 33.68580 | 7758 ft | 282 kts | 168° |
| 2026-05-06 15:37 | 27.05760 | 33.69142 | 7427 ft | 282 kts | 168° |
| 2026-05-06 15:38 | 27.03870 | 33.69700 | 7143 ft | 280 kts | 168° |
| 2026-05-06 15:38 | 27.01991 | 33.70258 | 6846 ft | 278 kts | 168° |
| 2026-05-06 15:38 | 27.00120 | 33.70812 | 6526 ft | 278 kts | 168° |
| 2026-05-06 15:38 | 26.98260 | 33.71361 | 6280 ft | 274 kts | 168° |
| 2026-05-06 15:39 | 26.96442 | 33.71898 | 6160 ft | 266 kts | 168° |
| 2026-05-06 15:39 | 26.94766 | 33.72684 | 5973 ft | 263 kts | 146° |
| 2026-05-06 15:39 | 26.93581 | 33.74228 | 5644 ft | 265 kts | 116° |
| 2026-05-06 15:39 | 26.93170 | 33.76230 | 5288 ft | 267 kts | 88° |
| 2026-05-06 15:40 | 26.93612 | 33.78222 | 4938 ft | 262 kts | 59° |
| 2026-05-06 15:40 | 26.94592 | 33.79915 | 4653 ft | 256 kts | 53° |
| 2026-05-06 15:40 | 26.95577 | 33.81544 | 4283 ft | 249 kts | 53° |
| 2026-05-06 15:40 | 26.96544 | 33.83132 | 3941 ft | 243 kts | 52° |
| 2026-05-06 15:41 | 26.97560 | 33.84605 | 3609 ft | 234 kts | 37° |
| 2026-05-06 15:41 | 26.98945 | 33.85410 | 3345 ft | 219 kts | 9° |
| 2026-05-06 15:41 | 27.00410 | 33.85339 | 3121 ft | 207 kts | 342° |
| 2026-05-06 15:41 | 27.01774 | 33.84898 | 2900 ft | 200 kts | 342° |
| 2026-05-06 15:42 | 27.03095 | 33.84485 | 2696 ft | 194 kts | 343° |
| 2026-05-06 15:42 | 27.04363 | 33.84104 | 2428 ft | 188 kts | 343° |
| 2026-05-06 15:42 | 27.05581 | 33.83744 | 2161 ft | 173 kts | 343° |
| 2026-05-06 15:42 | 27.06701 | 33.83410 | 1928 ft | 157 kts | 343° |
| 2026-05-06 15:43 | 27.07728 | 33.83102 | 1761 ft | 150 kts | 343° |
| 2026-05-06 15:43 | 27.08706 | 33.82812 | 1581 ft | 144 kts | 345° |
| 2026-05-06 15:43 | 27.09659 | 33.82530 | 1385 ft | 134 kts | 346° |
| 2026-05-06 15:43 | 27.10532 | 33.82272 | 1196 ft | 126 kts | 344° |
| 2026-05-06 15:44 | 27.11374 | 33.82018 | 1033 ft | 128 kts | 346° |
| 2026-05-06 15:44 | 27.12247 | 33.81762 | 855 ft | 131 kts | 346° |
| 2026-05-06 15:44 | 27.13123 | 33.81507 | 702 ft | 128 kts | 342° |
| 2026-05-06 15:44 | 27.13979 | 33.81245 | 527 ft | 127 kts | 344° |
| 2026-05-06 15:45 | 27.14845 | 33.80994 | 362 ft | 129 kts | 344° |
| 2026-05-06 15:45 | 27.15702 | 33.80740 | 183 ft | 126 kts | 343° |
| 2026-05-06 15:45 | 27.16535 | 33.80487 | 48 ft | 118 kts | 344° |
| 2026-05-06 15:45 | 27.17181 | 33.80297 | 50 ft | 65 kts | 345° |
| 2026-05-06 15:46 | 27.17405 | 33.80251 | 54 ft | 20 kts | 29° |
| 2026-05-06 15:46 | 27.17450 | 33.80407 | 53 ft | 23 kts | 79° |
| 2026-05-06 15:46 | 27.17478 | 33.80546 | 54 ft | 17 kts | 76° |
| 2026-05-06 15:46 | 27.17563 | 33.80612 | 58 ft | 12 kts | 345° |
| 2026-05-06 15:47 | 27.17623 | 33.80649 | 58 ft | 12 kts | 74° |
| 2026-05-06 15:47 | 27.17634 | 33.80694 | 54 ft | 1 kts | 76° |